sensor_id;sensor_type;location;lat;lon;timestamp;P1;durP1;ratioP1;P2;durP2;ratioP2
24517;SDS011;12678;51.336;12.406;2023-04-25T00:01:38;6.30;;;3.00;;
24517;SDS011;12678;51.336;12.406;2023-04-25T00:04:04;5.13;;;3.10;;
24517;SDS011;12678;51.336;12.406;2023-04-25T00:06:33;5.30;;;2.83;;
24517;SDS011;12678;51.336;12.406;2023-04-25T00:09:01;5.20;;;2.90;;
24517;SDS011;12678;51.336;12.406;2023-04-25T00:11:28;5.32;;;2.83;;
24517;SDS011;12678;51.336;12.406;2023-04-25T00:13:56;6.28;;;3.15;;
24517;SDS011;12678;51.336;12.406;2023-04-25T00:16:22;6.10;;;3.08;;
24517;SDS011;12678;51.336;12.406;2023-04-25T00:18:48;6.18;;;3.00;;
24517;SDS011;12678;51.336;12.406;2023-04-25T00:21:18;4.93;;;2.92;;
24517;SDS011;12678;51.336;12.406;2023-04-25T00:23:45;8.15;;;3.42;;
24517;SDS011;12678;51.336;12.406;2023-04-25T00:26:11;5.68;;;3.33;;
24517;SDS011;12678;51.336;12.406;2023-04-25T00:28:37;9.18;;;3.17;;
24517;SDS011;12678;51.336;12.406;2023-04-25T00:31:04;8.63;;;3.25;;
24517;SDS011;12678;51.336;12.406;2023-04-25T00:33:29;10.65;;;3.28;;
24517;SDS011;12678;51.336;12.406;2023-04-25T00:35:55;4.65;;;3.10;;
24517;SDS011;12678;51.336;12.406;2023-04-25T00:38:21;9.65;;;3.33;;
24517;SDS011;12678;51.336;12.406;2023-04-25T00:40:47;5.28;;;3.08;;
24517;SDS011;12678;51.336;12.406;2023-04-25T00:43:13;4.95;;;3.10;;
24517;SDS011;12678;51.336;12.406;2023-04-25T00:45:38;8.40;;;3.50;;
24517;SDS011;12678;51.336;12.406;2023-04-25T00:48:04;5.45;;;2.90;;
24517;SDS011;12678;51.336;12.406;2023-04-25T00:50:32;6.10;;;3.38;;
24517;SDS011;12678;51.336;12.406;2023-04-25T00:52:59;6.47;;;2.92;;
24517;SDS011;12678;51.336;12.406;2023-04-25T00:55:25;5.45;;;3.60;;
24517;SDS011;12678;51.336;12.406;2023-04-25T00:57:52;6.47;;;3.10;;
24517;SDS011;12678;51.336;12.406;2023-04-25T01:00:18;5.80;;;3.15;;
24517;SDS011;12678;51.336;12.406;2023-04-25T01:02:44;8.05;;;3.92;;
24517;SDS011;12678;51.336;12.406;2023-04-25T01:05:11;10.90;;;3.97;;
24517;SDS011;12678;51.336;12.406;2023-04-25T01:07:37;7.40;;;3.40;;
24517;SDS011;12678;51.336;12.406;2023-04-25T01:10:03;15.02;;;3.72;;
24517;SDS011;12678;51.336;12.406;2023-04-25T01:12:39;4.93;;;3.03;;
24517;SDS011;12678;51.336;12.406;2023-04-25T01:15:07;6.15;;;3.28;;
24517;SDS011;12678;51.336;12.406;2023-04-25T01:17:34;4.93;;;3.22;;
24517;SDS011;12678;51.336;12.406;2023-04-25T01:20:02;9.20;;;4.25;;
24517;SDS011;12678;51.336;12.406;2023-04-25T01:22:29;7.85;;;3.75;;
24517;SDS011;12678;51.336;12.406;2023-04-25T01:24:55;7.97;;;3.40;;
24517;SDS011;12678;51.336;12.406;2023-04-25T01:27:21;7.75;;;3.80;;
24517;SDS011;12678;51.336;12.406;2023-04-25T01:29:47;20.15;;;6.45;;
24517;SDS011;12678;51.336;12.406;2023-04-25T01:32:14;12.18;;;4.63;;
24517;SDS011;12678;51.336;12.406;2023-04-25T01:34:40;11.70;;;4.65;;
24517;SDS011;12678;51.336;12.406;2023-04-25T01:37:06;5.85;;;3.17;;
24517;SDS011;12678;51.336;12.406;2023-04-25T01:39:32;11.45;;;5.43;;
24517;SDS011;12678;51.336;12.406;2023-04-25T01:41:58;7.93;;;4.22;;
24517;SDS011;12678;51.336;12.406;2023-04-25T01:44:24;3.90;;;2.95;;
24517;SDS011;12678;51.336;12.406;2023-04-25T01:46:50;12.30;;;3.47;;
24517;SDS011;12678;51.336;12.406;2023-04-25T01:49:16;4.13;;;3.00;;
24517;SDS011;12678;51.336;12.406;2023-04-25T01:51:43;5.85;;;3.85;;
24517;SDS011;12678;51.336;12.406;2023-04-25T01:54:09;7.35;;;3.53;;
24517;SDS011;12678;51.336;12.406;2023-04-25T01:56:37;7.93;;;3.55;;
24517;SDS011;12678;51.336;12.406;2023-04-25T01:59:03;7.95;;;3.22;;
24517;SDS011;12678;51.336;12.406;2023-04-25T02:01:30;9.60;;;3.50;;
24517;SDS011;12678;51.336;12.406;2023-04-25T02:03:56;8.30;;;3.63;;
24517;SDS011;12678;51.336;12.406;2023-04-25T02:06:22;5.80;;;3.47;;
24517;SDS011;12678;51.336;12.406;2023-04-25T02:08:48;6.47;;;3.30;;
24517;SDS011;12678;51.336;12.406;2023-04-25T02:11:14;6.43;;;3.63;;
24517;SDS011;12678;51.336;12.406;2023-04-25T02:13:39;8.27;;;3.67;;
24517;SDS011;12678;51.336;12.406;2023-04-25T02:16:05;6.28;;;3.47;;
24517;SDS011;12678;51.336;12.406;2023-04-25T02:18:31;9.15;;;3.72;;
24517;SDS011;12678;51.336;12.406;2023-04-25T02:20:58;6.45;;;4.00;;
24517;SDS011;12678;51.336;12.406;2023-04-25T02:23:26;7.47;;;3.95;;
24517;SDS011;12678;51.336;12.406;2023-04-25T02:25:52;6.03;;;3.75;;
24517;SDS011;12678;51.336;12.406;2023-04-25T02:28:20;7.15;;;3.95;;
24517;SDS011;12678;51.336;12.406;2023-04-25T02:30:45;5.80;;;3.75;;
24517;SDS011;12678;51.336;12.406;2023-04-25T02:33:11;5.55;;;3.53;;
24517;SDS011;12678;51.336;12.406;2023-04-25T02:35:37;8.20;;;4.07;;
24517;SDS011;12678;51.336;12.406;2023-04-25T02:38:02;6.15;;;4.38;;
24517;SDS011;12678;51.336;12.406;2023-04-25T02:40:28;9.93;;;4.15;;
24517;SDS011;12678;51.336;12.406;2023-04-25T02:42:53;8.13;;;4.40;;
24517;SDS011;12678;51.336;12.406;2023-04-25T02:45:19;16.75;;;8.82;;
24517;SDS011;12678;51.336;12.406;2023-04-25T02:47:45;16.00;;;7.57;;
24517;SDS011;12678;51.336;12.406;2023-04-25T02:50:10;13.10;;;7.47;;
24517;SDS011;12678;51.336;12.406;2023-04-25T02:52:36;7.72;;;4.47;;
24517;SDS011;12678;51.336;12.406;2023-04-25T02:55:02;10.32;;;5.00;;
24517;SDS011;12678;51.336;12.406;2023-04-25T02:57:27;9.63;;;4.47;;
24517;SDS011;12678;51.336;12.406;2023-04-25T02:59:53;5.88;;;3.88;;
24517;SDS011;12678;51.336;12.406;2023-04-25T03:02:18;7.15;;;4.70;;
24517;SDS011;12678;51.336;12.406;2023-04-25T03:04:44;6.60;;;3.72;;
24517;SDS011;12678;51.336;12.406;2023-04-25T03:07:11;8.27;;;3.88;;
24517;SDS011;12678;51.336;12.406;2023-04-25T03:09:36;9.70;;;5.22;;
24517;SDS011;12678;51.336;12.406;2023-04-25T03:12:03;10.43;;;5.57;;
24517;SDS011;12678;51.336;12.406;2023-04-25T03:14:28;9.35;;;4.75;;
24517;SDS011;12678;51.336;12.406;2023-04-25T03:16:54;6.90;;;4.63;;
24517;SDS011;12678;51.336;12.406;2023-04-25T03:19:19;7.47;;;4.47;;
24517;SDS011;12678;51.336;12.406;2023-04-25T03:21:45;7.53;;;4.43;;
24517;SDS011;12678;51.336;12.406;2023-04-25T03:24:11;9.13;;;5.50;;
24517;SDS011;12678;51.336;12.406;2023-04-25T03:26:37;12.50;;;6.88;;
24517;SDS011;12678;51.336;12.406;2023-04-25T03:29:03;12.45;;;5.95;;
24517;SDS011;12678;51.336;12.406;2023-04-25T03:31:29;10.88;;;5.32;;
24517;SDS011;12678;51.336;12.406;2023-04-25T03:33:55;14.93;;;7.90;;
24517;SDS011;12678;51.336;12.406;2023-04-25T03:36:21;17.65;;;8.40;;
24517;SDS011;12678;51.336;12.406;2023-04-25T03:38:46;13.93;;;6.15;;
24517;SDS011;12678;51.336;12.406;2023-04-25T03:41:13;16.55;;;7.75;;
24517;SDS011;12678;51.336;12.406;2023-04-25T03:43:39;12.40;;;7.78;;
24517;SDS011;12678;51.336;12.406;2023-04-25T03:46:05;6.60;;;4.97;;
24517;SDS011;12678;51.336;12.406;2023-04-25T03:48:31;8.32;;;5.38;;
24517;SDS011;12678;51.336;12.406;2023-04-25T03:50:57;14.77;;;6.15;;
24517;SDS011;12678;51.336;12.406;2023-04-25T03:53:22;10.05;;;4.78;;
24517;SDS011;12678;51.336;12.406;2023-04-25T03:55:48;16.10;;;6.68;;
24517;SDS011;12678;51.336;12.406;2023-04-25T03:58:13;10.77;;;5.30;;
24517;SDS011;12678;51.336;12.406;2023-04-25T04:00:39;9.50;;;5.95;;
24517;SDS011;12678;51.336;12.406;2023-04-25T04:03:05;8.18;;;4.68;;
24517;SDS011;12678;51.336;12.406;2023-04-25T04:05:30;10.57;;;4.65;;
24517;SDS011;12678;51.336;12.406;2023-04-25T04:07:57;13.75;;;5.43;;
24517;SDS011;12678;51.336;12.406;2023-04-25T04:10:23;6.57;;;4.60;;
24517;SDS011;12678;51.336;12.406;2023-04-25T04:12:48;7.97;;;4.28;;
24517;SDS011;12678;51.336;12.406;2023-04-25T04:15:14;11.18;;;4.10;;
24517;SDS011;12678;51.336;12.406;2023-04-25T04:17:39;9.27;;;4.55;;
24517;SDS011;12678;51.336;12.406;2023-04-25T04:20:06;12.40;;;4.80;;
24517;SDS011;12678;51.336;12.406;2023-04-25T04:22:32;12.13;;;4.35;;
24517;SDS011;12678;51.336;12.406;2023-04-25T04:24:58;16.05;;;4.75;;
24517;SDS011;12678;51.336;12.406;2023-04-25T04:27:24;10.45;;;5.82;;
24517;SDS011;12678;51.336;12.406;2023-04-25T04:29:50;13.30;;;5.47;;
24517;SDS011;12678;51.336;12.406;2023-04-25T04:32:18;10.05;;;5.13;;
24517;SDS011;12678;51.336;12.406;2023-04-25T04:34:43;11.38;;;4.18;;
24517;SDS011;12678;51.336;12.406;2023-04-25T04:37:09;7.38;;;4.53;;
24517;SDS011;12678;51.336;12.406;2023-04-25T04:39:37;14.18;;;6.07;;
24517;SDS011;12678;51.336;12.406;2023-04-25T04:42:03;8.30;;;4.60;;
24517;SDS011;12678;51.336;12.406;2023-04-25T04:44:30;10.68;;;3.97;;
24517;SDS011;12678;51.336;12.406;2023-04-25T04:47:00;8.13;;;3.80;;
24517;SDS011;12678;51.336;12.406;2023-04-25T04:49:27;14.63;;;4.15;;
24517;SDS011;12678;51.336;12.406;2023-04-25T04:51:53;7.90;;;4.07;;
24517;SDS011;12678;51.336;12.406;2023-04-25T04:54:21;11.95;;;4.07;;
24517;SDS011;12678;51.336;12.406;2023-04-25T04:56:47;11.88;;;4.05;;
24517;SDS011;12678;51.336;12.406;2023-04-25T04:59:13;10.85;;;4.13;;
24517;SDS011;12678;51.336;12.406;2023-04-25T05:01:39;9.23;;;3.78;;
24517;SDS011;12678;51.336;12.406;2023-04-25T05:04:05;13.15;;;4.03;;
24517;SDS011;12678;51.336;12.406;2023-04-25T05:06:31;9.75;;;3.65;;
24517;SDS011;12678;51.336;12.406;2023-04-25T05:08:57;6.57;;;3.92;;
24517;SDS011;12678;51.336;12.406;2023-04-25T05:11:23;6.63;;;3.40;;
24517;SDS011;12678;51.336;12.406;2023-04-25T05:13:51;12.70;;;4.35;;
24517;SDS011;12678;51.336;12.406;2023-04-25T05:16:18;10.55;;;3.47;;
24517;SDS011;12678;51.336;12.406;2023-04-25T05:18:44;10.05;;;4.43;;
24517;SDS011;12678;51.336;12.406;2023-04-25T05:21:09;11.25;;;5.22;;
24517;SDS011;12678;51.336;12.406;2023-04-25T05:23:35;10.95;;;4.55;;
24517;SDS011;12678;51.336;12.406;2023-04-25T05:26:01;8.10;;;3.88;;
24517;SDS011;12678;51.336;12.406;2023-04-25T05:28:27;11.23;;;5.18;;
24517;SDS011;12678;51.336;12.406;2023-04-25T05:30:53;5.80;;;3.35;;
24517;SDS011;12678;51.336;12.406;2023-04-25T05:33:19;8.63;;;3.80;;
24517;SDS011;12678;51.336;12.406;2023-04-25T05:35:45;9.70;;;4.43;;
24517;SDS011;12678;51.336;12.406;2023-04-25T05:38:11;10.57;;;4.15;;
24517;SDS011;12678;51.336;12.406;2023-04-25T05:40:37;11.25;;;4.20;;
24517;SDS011;12678;51.336;12.406;2023-04-25T05:43:03;10.95;;;4.50;;
24517;SDS011;12678;51.336;12.406;2023-04-25T05:45:28;10.18;;;4.50;;
24517;SDS011;12678;51.336;12.406;2023-04-25T05:47:54;10.52;;;4.53;;
24517;SDS011;12678;51.336;12.406;2023-04-25T05:50:20;8.98;;;4.18;;
24517;SDS011;12678;51.336;12.406;2023-04-25T05:52:46;7.47;;;4.22;;
24517;SDS011;12678;51.336;12.406;2023-04-25T05:55:12;10.55;;;4.30;;
24517;SDS011;12678;51.336;12.406;2023-04-25T05:57:38;9.55;;;4.50;;
24517;SDS011;12678;51.336;12.406;2023-04-25T06:00:07;15.73;;;6.13;;
24517;SDS011;12678;51.336;12.406;2023-04-25T06:02:34;10.73;;;4.47;;
24517;SDS011;12678;51.336;12.406;2023-04-25T06:05:00;8.63;;;4.05;;
24517;SDS011;12678;51.336;12.406;2023-04-25T06:07:28;9.68;;;4.18;;
24517;SDS011;12678;51.336;12.406;2023-04-25T06:09:55;8.45;;;3.85;;
24517;SDS011;12678;51.336;12.406;2023-04-25T06:12:21;9.35;;;3.88;;
24517;SDS011;12678;51.336;12.406;2023-04-25T06:14:46;12.13;;;4.55;;
24517;SDS011;12678;51.336;12.406;2023-04-25T06:17:12;8.80;;;4.03;;
24517;SDS011;12678;51.336;12.406;2023-04-25T06:19:38;8.80;;;3.80;;
24517;SDS011;12678;51.336;12.406;2023-04-25T06:22:04;16.90;;;4.80;;
24517;SDS011;12678;51.336;12.406;2023-04-25T06:24:30;13.30;;;3.75;;
24517;SDS011;12678;51.336;12.406;2023-04-25T06:26:56;10.32;;;4.22;;
24517;SDS011;12678;51.336;12.406;2023-04-25T06:29:21;8.50;;;3.85;;
24517;SDS011;12678;51.336;12.406;2023-04-25T06:31:47;9.70;;;4.28;;
24517;SDS011;12678;51.336;12.406;2023-04-25T06:34:13;11.27;;;4.50;;
24517;SDS011;12678;51.336;12.406;2023-04-25T06:36:38;11.93;;;4.65;;
24517;SDS011;12678;51.336;12.406;2023-04-25T06:39:07;10.13;;;4.43;;
24517;SDS011;12678;51.336;12.406;2023-04-25T06:41:34;7.75;;;3.90;;
24517;SDS011;12678;51.336;12.406;2023-04-25T06:44:00;23.95;;;6.65;;
24517;SDS011;12678;51.336;12.406;2023-04-25T06:46:30;22.88;;;11.75;;
24517;SDS011;12678;51.336;12.406;2023-04-25T06:48:57;15.02;;;7.57;;
24517;SDS011;12678;51.336;12.406;2023-04-25T06:51:23;11.38;;;4.75;;
24517;SDS011;12678;51.336;12.406;2023-04-25T06:53:49;7.45;;;4.20;;
24517;SDS011;12678;51.336;12.406;2023-04-25T06:56:15;9.30;;;3.72;;
24517;SDS011;12678;51.336;12.406;2023-04-25T06:58:44;11.63;;;3.97;;
24517;SDS011;12678;51.336;12.406;2023-04-25T07:01:10;6.68;;;3.20;;
24517;SDS011;12678;51.336;12.406;2023-04-25T07:03:36;6.88;;;3.22;;
24517;SDS011;12678;51.336;12.406;2023-04-25T07:06:02;5.05;;;3.08;;
24517;SDS011;12678;51.336;12.406;2023-04-25T07:08:28;7.25;;;4.22;;
24517;SDS011;12678;51.336;12.406;2023-04-25T07:10:57;7.68;;;3.53;;
24517;SDS011;12678;51.336;12.406;2023-04-25T07:13:23;7.10;;;3.60;;
24517;SDS011;12678;51.336;12.406;2023-04-25T07:15:49;11.82;;;3.55;;
24517;SDS011;12678;51.336;12.406;2023-04-25T07:18:14;7.75;;;3.70;;
24517;SDS011;12678;51.336;12.406;2023-04-25T07:20:41;12.88;;;3.33;;
24517;SDS011;12678;51.336;12.406;2023-04-25T07:23:06;11.02;;;3.92;;
24517;SDS011;12678;51.336;12.406;2023-04-25T07:25:32;10.30;;;5.35;;
24517;SDS011;12678;51.336;12.406;2023-04-25T07:27:58;9.85;;;4.45;;
24517;SDS011;12678;51.336;12.406;2023-04-25T07:30:23;16.05;;;5.85;;
24517;SDS011;12678;51.336;12.406;2023-04-25T07:32:49;9.93;;;5.13;;
24517;SDS011;12678;51.336;12.406;2023-04-25T07:35:16;11.60;;;5.55;;
24517;SDS011;12678;51.336;12.406;2023-04-25T07:37:42;10.75;;;4.15;;
24517;SDS011;12678;51.336;12.406;2023-04-25T07:40:08;12.30;;;4.00;;
24517;SDS011;12678;51.336;12.406;2023-04-25T07:42:35;8.73;;;3.92;;
24517;SDS011;12678;51.336;12.406;2023-04-25T07:45:01;9.15;;;4.10;;
24517;SDS011;12678;51.336;12.406;2023-04-25T07:47:28;7.40;;;3.95;;
24517;SDS011;12678;51.336;12.406;2023-04-25T07:49:54;8.05;;;4.25;;
24517;SDS011;12678;51.336;12.406;2023-04-25T07:52:21;6.97;;;3.70;;
24517;SDS011;12678;51.336;12.406;2023-04-25T07:54:48;10.40;;;4.45;;
24517;SDS011;12678;51.336;12.406;2023-04-25T07:57:14;5.85;;;3.33;;
24517;SDS011;12678;51.336;12.406;2023-04-25T07:59:41;6.78;;;3.90;;
24517;SDS011;12678;51.336;12.406;2023-04-25T08:02:07;16.15;;;4.30;;
24517;SDS011;12678;51.336;12.406;2023-04-25T08:04:33;6.50;;;4.10;;
24517;SDS011;12678;51.336;12.406;2023-04-25T08:06:59;7.95;;;4.22;;
24517;SDS011;12678;51.336;12.406;2023-04-25T08:09:25;11.00;;;3.83;;
24517;SDS011;12678;51.336;12.406;2023-04-25T08:11:51;6.78;;;3.55;;
24517;SDS011;12678;51.336;12.406;2023-04-25T08:14:17;8.95;;;3.75;;
24517;SDS011;12678;51.336;12.406;2023-04-25T08:16:42;5.80;;;2.97;;
24517;SDS011;12678;51.336;12.406;2023-04-25T08:19:09;6.95;;;2.67;;
24517;SDS011;12678;51.336;12.406;2023-04-25T08:21:35;6.22;;;2.38;;
24517;SDS011;12678;51.336;12.406;2023-04-25T08:24:05;6.70;;;1.98;;
24517;SDS011;12678;51.336;12.406;2023-04-25T08:26:30;9.38;;;2.33;;
24517;SDS011;12678;51.336;12.406;2023-04-25T08:28:57;6.63;;;2.22;;
24517;SDS011;12678;51.336;12.406;2023-04-25T08:31:23;6.72;;;2.53;;
24517;SDS011;12678;51.336;12.406;2023-04-25T08:33:53;6.57;;;1.58;;
24517;SDS011;12678;51.336;12.406;2023-04-25T08:36:19;16.35;;;2.17;;
24517;SDS011;12678;51.336;12.406;2023-04-25T08:38:45;9.55;;;1.77;;
24517;SDS011;12678;51.336;12.406;2023-04-25T08:41:10;12.02;;;2.85;;
24517;SDS011;12678;51.336;12.406;2023-04-25T08:43:36;4.10;;;2.13;;
24517;SDS011;12678;51.336;12.406;2023-04-25T08:46:08;6.80;;;2.22;;
24517;SDS011;12678;51.336;12.406;2023-04-25T08:48:37;19.42;;;2.92;;
24517;SDS011;12678;51.336;12.406;2023-04-25T08:51:15;3.78;;;1.50;;
24517;SDS011;12678;51.336;12.406;2023-04-25T08:53:53;3.33;;;1.38;;
24517;SDS011;12678;51.336;12.406;2023-04-25T08:56:20;5.88;;;2.35;;
24517;SDS011;12678;51.336;12.406;2023-04-25T08:58:48;11.88;;;1.83;;
24517;SDS011;12678;51.336;12.406;2023-04-25T09:01:17;13.98;;;4.07;;
24517;SDS011;12678;51.336;12.406;2023-04-25T09:03:44;7.43;;;2.45;;
24517;SDS011;12678;51.336;12.406;2023-04-25T09:06:13;4.57;;;2.00;;
24517;SDS011;12678;51.336;12.406;2023-04-25T09:08:42;4.05;;;1.50;;
24517;SDS011;12678;51.336;12.406;2023-04-25T09:11:14;7.35;;;1.67;;
24517;SDS011;12678;51.336;12.406;2023-04-25T09:13:41;9.43;;;2.13;;
24517;SDS011;12678;51.336;12.406;2023-04-25T09:16:08;14.55;;;2.03;;
24517;SDS011;12678;51.336;12.406;2023-04-25T09:18:34;8.15;;;2.45;;
24517;SDS011;12678;51.336;12.406;2023-04-25T09:21:05;4.45;;;2.33;;
24517;SDS011;12678;51.336;12.406;2023-04-25T09:23:40;7.07;;;2.37;;
24517;SDS011;12678;51.336;12.406;2023-04-25T09:26:09;6.15;;;2.63;;
24517;SDS011;12678;51.336;12.406;2023-04-25T09:28:38;6.65;;;1.98;;
24517;SDS011;12678;51.336;12.406;2023-04-25T09:31:05;9.98;;;3.25;;
24517;SDS011;12678;51.336;12.406;2023-04-25T09:33:31;3.97;;;1.83;;
24517;SDS011;12678;51.336;12.406;2023-04-25T09:36:05;12.25;;;2.38;;
24517;SDS011;12678;51.336;12.406;2023-04-25T09:38:45;8.25;;;2.17;;
24517;SDS011;12678;51.336;12.406;2023-04-25T09:41:11;3.67;;;2.35;;
24517;SDS011;12678;51.336;12.406;2023-04-25T09:43:38;6.18;;;2.00;;
24517;SDS011;12678;51.336;12.406;2023-04-25T09:46:12;5.95;;;2.55;;
24517;SDS011;12678;51.336;12.406;2023-04-25T09:48:38;7.00;;;2.10;;
24517;SDS011;12678;51.336;12.406;2023-04-25T09:51:05;5.68;;;2.70;;
24517;SDS011;12678;51.336;12.406;2023-04-25T09:53:44;7.15;;;3.00;;
24517;SDS011;12678;51.336;12.406;2023-04-25T09:56:14;5.72;;;2.42;;
24517;SDS011;12678;51.336;12.406;2023-04-25T09:58:41;14.73;;;4.18;;
24517;SDS011;12678;51.336;12.406;2023-04-25T10:01:07;11.88;;;2.63;;
24517;SDS011;12678;51.336;12.406;2023-04-25T10:03:37;6.78;;;3.00;;
24517;SDS011;12678;51.336;12.406;2023-04-25T10:06:07;9.60;;;2.53;;
24517;SDS011;12678;51.336;12.406;2023-04-25T10:08:39;9.40;;;2.57;;
24517;SDS011;12678;51.336;12.406;2023-04-25T10:11:07;4.70;;;2.33;;
24517;SDS011;12678;51.336;12.406;2023-04-25T10:13:34;11.20;;;2.60;;
24517;SDS011;12678;51.336;12.406;2023-04-25T10:16:03;8.55;;;2.38;;
24517;SDS011;12678;51.336;12.406;2023-04-25T10:18:30;11.27;;;2.55;;
24517;SDS011;12678;51.336;12.406;2023-04-25T10:20:59;7.00;;;2.42;;
24517;SDS011;12678;51.336;12.406;2023-04-25T10:23:26;6.88;;;3.00;;
24517;SDS011;12678;51.336;12.406;2023-04-25T10:25:54;7.28;;;2.83;;
24517;SDS011;12678;51.336;12.406;2023-04-25T10:28:21;10.00;;;3.22;;
24517;SDS011;12678;51.336;12.406;2023-04-25T10:30:58;14.05;;;3.47;;
24517;SDS011;12678;51.336;12.406;2023-04-25T10:36:12;9.48;;;3.10;;
24517;SDS011;12678;51.336;12.406;2023-04-25T10:38:49;12.95;;;3.47;;
24517;SDS011;12678;51.336;12.406;2023-04-25T10:41:17;12.07;;;4.03;;
24517;SDS011;12678;51.336;12.406;2023-04-25T10:43:45;13.88;;;3.55;;
24517;SDS011;12678;51.336;12.406;2023-04-25T10:48:45;5.93;;;2.75;;
24517;SDS011;12678;51.336;12.406;2023-04-25T10:53:44;14.25;;;3.22;;
24517;SDS011;12678;51.336;12.406;2023-04-25T10:56:12;19.08;;;5.22;;
24517;SDS011;12678;51.336;12.406;2023-04-25T10:58:45;10.77;;;3.83;;
24517;SDS011;12678;51.336;12.406;2023-04-25T11:01:13;18.45;;;5.55;;
24517;SDS011;12678;51.336;12.406;2023-04-25T11:03:43;17.27;;;5.60;;
24517;SDS011;12678;51.336;12.406;2023-04-25T11:06:15;26.92;;;5.13;;
24517;SDS011;12678;51.336;12.406;2023-04-25T11:08:48;18.38;;;5.07;;
24517;SDS011;12678;51.336;12.406;2023-04-25T11:11:20;7.18;;;3.38;;
24517;SDS011;12678;51.336;12.406;2023-04-25T11:13:49;18.73;;;3.85;;
24517;SDS011;12678;51.336;12.406;2023-04-25T11:16:15;15.23;;;4.68;;
24517;SDS011;12678;51.336;12.406;2023-04-25T11:18:42;10.57;;;4.63;;
24517;SDS011;12678;51.336;12.406;2023-04-25T11:21:09;13.35;;;3.75;;
24517;SDS011;12678;51.336;12.406;2023-04-25T11:23:35;14.75;;;3.95;;
24517;SDS011;12678;51.336;12.406;2023-04-25T11:26:01;17.00;;;3.97;;
24517;SDS011;12678;51.336;12.406;2023-04-25T11:28:28;11.10;;;3.33;;
24517;SDS011;12678;51.336;12.406;2023-04-25T11:30:54;11.02;;;4.05;;
24517;SDS011;12678;51.336;12.406;2023-04-25T11:33:24;12.68;;;4.28;;
24517;SDS011;12678;51.336;12.406;2023-04-25T11:35:53;11.75;;;3.92;;
24517;SDS011;12678;51.336;12.406;2023-04-25T11:38:23;8.68;;;3.67;;
24517;SDS011;12678;51.336;12.406;2023-04-25T11:40:51;5.85;;;2.97;;
24517;SDS011;12678;51.336;12.406;2023-04-25T11:43:17;18.85;;;3.80;;
24517;SDS011;12678;51.336;12.406;2023-04-25T11:45:48;7.45;;;2.85;;
24517;SDS011;12678;51.336;12.406;2023-04-25T11:48:16;9.75;;;3.15;;
24517;SDS011;12678;51.336;12.406;2023-04-25T11:50:42;5.82;;;2.60;;
24517;SDS011;12678;51.336;12.406;2023-04-25T11:53:08;12.80;;;2.80;;
24517;SDS011;12678;51.336;12.406;2023-04-25T11:55:35;7.28;;;2.20;;
24517;SDS011;12678;51.336;12.406;2023-04-25T11:58:01;7.32;;;2.72;;
24517;SDS011;12678;51.336;12.406;2023-04-25T12:00:28;14.77;;;2.50;;
24517;SDS011;12678;51.336;12.406;2023-04-25T12:02:55;8.32;;;2.08;;
24517;SDS011;12678;51.336;12.406;2023-04-25T12:05:29;6.35;;;1.75;;
24517;SDS011;12678;51.336;12.406;2023-04-25T12:07:58;7.47;;;2.08;;
24517;SDS011;12678;51.336;12.406;2023-04-25T12:10:36;8.18;;;1.90;;
24517;SDS011;12678;51.336;12.406;2023-04-25T12:13:18;6.03;;;2.08;;
24517;SDS011;12678;51.336;12.406;2023-04-25T12:15:56;12.40;;;2.53;;
24517;SDS011;12678;51.336;12.406;2023-04-25T12:18:23;7.47;;;2.05;;
24517;SDS011;12678;51.336;12.406;2023-04-25T12:20:52;9.50;;;2.30;;
24517;SDS011;12678;51.336;12.406;2023-04-25T12:23:24;7.35;;;2.35;;
24517;SDS011;12678;51.336;12.406;2023-04-25T12:25:52;11.32;;;2.10;;
24517;SDS011;12678;51.336;12.406;2023-04-25T12:28:22;4.70;;;1.55;;
24517;SDS011;12678;51.336;12.406;2023-04-25T12:30:56;14.88;;;2.08;;
24517;SDS011;12678;51.336;12.406;2023-04-25T12:33:31;8.70;;;2.55;;
24517;SDS011;12678;51.336;12.406;2023-04-25T12:36:02;10.70;;;2.22;;
24517;SDS011;12678;51.336;12.406;2023-04-25T12:38:35;7.85;;;3.65;;
24517;SDS011;12678;51.336;12.406;2023-04-25T12:41:08;3.33;;;1.95;;
24517;SDS011;12678;51.336;12.406;2023-04-25T12:43:34;5.03;;;2.33;;
24517;SDS011;12678;51.336;12.406;2023-04-25T12:46:00;7.72;;;2.20;;
24517;SDS011;12678;51.336;12.406;2023-04-25T12:48:26;6.55;;;1.95;;
24517;SDS011;12678;51.336;12.406;2023-04-25T12:50:52;9.10;;;1.88;;
24517;SDS011;12678;51.336;12.406;2023-04-25T12:53:22;8.18;;;2.30;;
24517;SDS011;12678;51.336;12.406;2023-04-25T12:55:49;7.65;;;1.92;;
24517;SDS011;12678;51.336;12.406;2023-04-25T12:58:16;2.20;;;1.67;;
24517;SDS011;12678;51.336;12.406;2023-04-25T13:00:42;9.25;;;1.85;;
24517;SDS011;12678;51.336;12.406;2023-04-25T13:03:09;5.13;;;1.92;;
24517;SDS011;12678;51.336;12.406;2023-04-25T13:05:36;5.97;;;1.55;;
24517;SDS011;12678;51.336;12.406;2023-04-25T13:08:06;2.80;;;1.55;;
24517;SDS011;12678;51.336;12.406;2023-04-25T13:10:32;2.28;;;1.60;;
24517;SDS011;12678;51.336;12.406;2023-04-25T13:12:59;7.70;;;1.77;;
24517;SDS011;12678;51.336;12.406;2023-04-25T13:15:26;7.32;;;1.33;;
24517;SDS011;12678;51.336;12.406;2023-04-25T13:17:52;3.58;;;1.42;;
24517;SDS011;12678;51.336;12.406;2023-04-25T13:20:18;5.00;;;1.58;;
24517;SDS011;12678;51.336;12.406;2023-04-25T13:22:47;8.88;;;2.10;;
24517;SDS011;12678;51.336;12.406;2023-04-25T13:25:13;7.72;;;2.22;;
24517;SDS011;12678;51.336;12.406;2023-04-25T13:27:39;2.83;;;1.38;;
24517;SDS011;12678;51.336;12.406;2023-04-25T13:30:06;4.72;;;1.73;;
24517;SDS011;12678;51.336;12.406;2023-04-25T13:32:36;6.10;;;1.63;;
24517;SDS011;12678;51.336;12.406;2023-04-25T13:35:06;5.15;;;2.17;;
24517;SDS011;12678;51.336;12.406;2023-04-25T13:37:34;10.25;;;2.60;;
24517;SDS011;12678;51.336;12.406;2023-04-25T13:40:01;4.05;;;1.40;;
24517;SDS011;12678;51.336;12.406;2023-04-25T13:44:59;5.18;;;2.13;;
24517;SDS011;12678;51.336;12.406;2023-04-25T13:47:25;5.53;;;1.92;;
24517;SDS011;12678;51.336;12.406;2023-04-25T13:49:51;3.80;;;1.13;;
24517;SDS011;12678;51.336;12.406;2023-04-25T13:52:18;4.85;;;2.10;;
24517;SDS011;12678;51.336;12.406;2023-04-25T13:54:43;7.88;;;1.95;;
24517;SDS011;12678;51.336;12.406;2023-04-25T13:57:09;7.40;;;2.05;;
24517;SDS011;12678;51.336;12.406;2023-04-25T13:59:36;15.45;;;1.60;;
24517;SDS011;12678;51.336;12.406;2023-04-25T14:02:02;5.40;;;1.80;;
24517;SDS011;12678;51.336;12.406;2023-04-25T14:04:28;4.45;;;1.35;;
24517;SDS011;12678;51.336;12.406;2023-04-25T14:06:54;7.80;;;2.08;;
24517;SDS011;12678;51.336;12.406;2023-04-25T14:09:20;8.20;;;1.35;;
24517;SDS011;12678;51.336;12.406;2023-04-25T14:11:50;3.28;;;1.30;;
24517;SDS011;12678;51.336;12.406;2023-04-25T14:14:17;10.52;;;1.95;;
24517;SDS011;12678;51.336;12.406;2023-04-25T14:16:44;4.20;;;2.15;;
24517;SDS011;12678;51.336;12.406;2023-04-25T14:19:14;6.70;;;1.90;;
24517;SDS011;12678;51.336;12.406;2023-04-25T14:21:41;4.53;;;1.38;;
24517;SDS011;12678;51.336;12.406;2023-04-25T14:24:08;5.28;;;1.95;;
24517;SDS011;12678;51.336;12.406;2023-04-25T14:26:36;4.28;;;1.40;;
24517;SDS011;12678;51.336;12.406;2023-04-25T14:29:06;6.20;;;1.42;;
24517;SDS011;12678;51.336;12.406;2023-04-25T14:31:32;5.18;;;1.48;;
24517;SDS011;12678;51.336;12.406;2023-04-25T14:33:58;7.18;;;1.20;;
24517;SDS011;12678;51.336;12.406;2023-04-25T14:36:24;9.27;;;1.75;;
24517;SDS011;12678;51.336;12.406;2023-04-25T14:38:51;10.02;;;1.90;;
24517;SDS011;12678;51.336;12.406;2023-04-25T14:41:17;3.75;;;1.40;;